Terminal Aerodrome Forecast
Issued by NWS

Home | Current Version | Previous Version | Text Only | Print | Product List | Glossary On
Versions: 1 2 3 4 5 6 7 8 9 10 11 12 13 14 15
000
FTUS46 KLOX 290200 AAA
TAFLGB
TAF AMD
KLGB 290200Z 2902/2924 29012KT P6SM SKC
     FM290400 30006KT P6SM SKC
     FM291100 VRB03KT 4SM BR OVC004
     FM291600 18007KT P6SM SKC
     FM292300 29010KT P6SM SCT250=

USA.gov is the U.S. government's official web portal to all federal, state and local government web resources and services.